Terminal Aerodrome Forecast
Issued by NWS Sioux Falls, SD

Home | Current Version | Previous Version | Graphics & Text | Print | Product List | Glossary On
Versions: 1 2 3 4 5 6 7 8 9 10 11 12 13 14 15 16 17 18 19
000
FTUS43 KFSD 210500
TAFHON
TAF
KHON 210527Z 2106/2206 14007KT P6SM SCT250
     FM211000 13005KT 4SM BR SCT004 BKN008
     FM211500 14007KT P6SM SCT008
     FM211700 16012KT P6SM BKN200
     FM220500 35009KT P6SM SCT100=

USA.gov is the U.S. government's official web portal to all federal, state and local government web resources and services.